createdAt,value
2022-08-05T00:01:27.981Z,22.53
2022-08-05T00:06:33.377Z,21.96
2022-08-05T00:11:49.649Z,21.65
2022-08-05T00:16:58.782Z,21.39
2022-08-05T00:22:05.717Z,21.26
2022-08-05T00:27:16.525Z,21.20
2022-08-05T00:32:19.706Z,21.21
2022-08-05T00:37:22.616Z,21.23
2022-08-05T00:42:34.666Z,21.06
2022-08-05T00:47:57.337Z,21.09
2022-08-05T00:53:00.874Z,21.27
2022-08-05T00:58:05.848Z,21.35
2022-08-05T01:03:22.538Z,21.41
2022-08-05T01:08:30.267Z,21.37
2022-08-05T01:13:59.455Z,21.39
2022-08-05T01:19:14.300Z,21.46
2022-08-05T01:24:36.962Z,21.39
2022-08-05T01:29:47.562Z,21.36
2022-08-05T01:34:55.655Z,21.43
2022-08-05T01:40:00.654Z,21.35
2022-08-05T01:45:08.576Z,21.42
2022-08-05T01:50:16.044Z,21.36
2022-08-05T01:55:23.693Z,21.46
2022-08-05T02:00:29.998Z,21.35
2022-08-05T02:05:35.985Z,21.37
2022-08-05T02:10:44.126Z,21.38
2022-08-05T02:15:54.301Z,21.32
2022-08-05T02:21:00.982Z,21.35
2022-08-05T02:26:07.264Z,21.37
2022-08-05T02:31:21.115Z,21.39
2022-08-05T02:36:27.541Z,21.38
2022-08-05T02:41:43.133Z,21.39
2022-08-05T02:47:00.725Z,21.35
2022-08-05T02:52:04.986Z,21.20
2022-08-05T02:58:20.177Z,21.07
2022-08-05T03:02:38.222Z,20.93
2022-08-05T03:08:07.118Z,20.82
2022-08-05T03:13:16.826Z,20.74
2022-08-05T03:18:24.674Z,20.56
2022-08-05T03:23:33.628Z,20.40
2022-08-05T03:28:38.419Z,20.31
2022-08-05T03:33:52.838Z,20.26
2022-08-05T03:38:56.246Z,20.22
2022-08-05T03:44:10.199Z,20.18
2022-08-05T03:49:16.145Z,20.14
2022-08-05T03:55:50.981Z,20.12
2022-08-05T03:59:55.442Z,20.01
2022-08-05T04:05:01.073Z,19.97
2022-08-05T04:10:04.606Z,19.92
2022-08-05T04:15:08.900Z,19.87
2022-08-05T04:20:22.143Z,19.88
2022-08-05T04:25:56.966Z,19.80
2022-08-05T04:30:49.541Z,19.76
2022-08-05T04:36:10.698Z,19.76
2022-08-05T04:41:16.895Z,19.81
2022-08-05T04:46:28.242Z,19.84
2022-08-05T04:51:32.923Z,19.79
2022-08-05T04:56:37.679Z,19.84
2022-08-05T05:02:07.230Z,19.96
2022-08-05T05:07:04.939Z,20.07
2022-08-05T05:12:12.315Z,20.19
2022-08-05T05:17:18.711Z,20.22
2022-08-05T05:22:27.771Z,20.20
2022-08-05T05:27:45.741Z,20.20
2022-08-05T05:32:51.812Z,20.21
2022-08-05T05:37:59.975Z,20.29
2022-08-05T05:43:04.616Z,20.35
2022-08-05T05:48:11.492Z,20.41
2022-08-05T05:53:25.569Z,20.38
2022-08-05T05:58:31.731Z,20.41
2022-08-05T06:03:53.898Z,20.55
2022-08-05T06:08:59.173Z,20.56
2022-08-05T06:14:02.791Z,20.75
2022-08-05T06:19:07.045Z,20.93
2022-08-05T06:24:12.836Z,21.19
2022-08-05T06:29:25.009Z,21.42
2022-08-05T06:34:40.915Z,21.38
2022-08-05T06:39:45.868Z,21.41
2022-08-05T06:44:49.163Z,21.42
2022-08-05T06:50:01.128Z,21.84
2022-08-05T06:55:07.186Z,22.13
2022-08-05T07:00:11.327Z,22.48
2022-08-05T07:05:18.838Z,23.20
2022-08-05T07:10:32.265Z,23.54
2022-08-05T07:16:00.867Z,23.68
2022-08-05T07:21:07.609Z,23.79
2022-08-05T07:26:13.277Z,23.82
2022-08-05T07:31:17.328Z,24.06
2022-08-05T07:36:21.451Z,24.02
2022-08-05T07:42:13.074Z,23.72
2022-08-05T07:46:50.599Z,23.59
2022-08-05T07:51:55.305Z,24.06
2022-08-05T07:57:22.694Z,24.30
2022-08-05T08:02:31.040Z,24.09
2022-08-05T08:07:59.953Z,23.88
2022-08-05T08:13:05.110Z,23.55
2022-08-05T08:18:13.718Z,23.82
2022-08-05T08:24:01.006Z,24.13
2022-08-05T08:28:55.280Z,24.03
2022-08-05T08:34:02.628Z,24.09
2022-08-05T08:39:05.586Z,24.26
2022-08-05T08:45:21.153Z,24.33
2022-08-05T08:50:07.820Z,24.65
2022-08-05T08:55:13.484Z,25.02
2022-08-05T09:00:23.733Z,24.94
2022-08-05T09:05:38.447Z,25.15
2022-08-05T09:10:52.824Z,25.45
2022-08-05T09:15:57.054Z,25.62
2022-08-05T09:20:59.853Z,25.70
2022-08-05T09:26:15.945Z,25.49
2022-08-05T09:32:40.192Z,24.90
2022-08-05T09:36:56.412Z,24.78
2022-08-05T09:42:04.537Z,24.88
2022-08-05T09:47:15.398Z,25.03
2022-08-05T09:52:25.537Z,24.94
2022-08-05T09:57:39.695Z,24.89
2022-08-05T10:02:49.977Z,24.83
2022-08-05T10:08:35.463Z,24.81
2022-08-05T10:13:31.623Z,24.77
2022-08-05T10:18:48.433Z,24.65
2022-08-05T10:24:00.264Z,25.21
2022-08-05T10:29:03.633Z,24.56
2022-08-05T10:34:08.357Z,24.34
2022-08-05T10:39:25.045Z,24.00
2022-08-05T10:44:46.251Z,23.87
2022-08-05T10:50:32.088Z,24.28
2022-08-05T10:55:38.462Z,25.26
2022-08-05T11:01:03.080Z,25.22
2022-08-05T11:06:15.151Z,25.56
2022-08-05T11:11:44.592Z,25.12
2022-08-05T11:17:56.777Z,24.97
2022-08-05T11:23:02.179Z,24.58
2022-08-05T11:28:43.588Z,25.09
2022-08-05T11:33:55.719Z,25.61
2022-08-05T11:39:03.086Z,25.73
2022-08-05T11:44:12.452Z,25.01
2022-08-05T11:49:24.702Z,24.68
2022-08-05T11:54:33.877Z,25.46
2022-08-05T11:59:50.256Z,24.90
2022-08-05T12:04:59.590Z,24.14
2022-08-05T12:10:11.570Z,23.70
2022-08-05T12:15:37.989Z,23.76
2022-08-05T12:20:41.553Z,23.25
2022-08-05T12:25:56.670Z,22.73
2022-08-05T12:31:02.440Z,22.72
2022-08-05T12:36:08.415Z,22.68
2022-08-05T12:41:16.154Z,22.80
2022-08-05T12:46:29.072Z,22.73
2022-08-05T12:52:14.425Z,22.35
2022-08-05T12:56:59.462Z,22.21
2022-08-05T13:02:07.422Z,21.88
2022-08-05T13:07:23.753Z,21.62
2022-08-05T13:12:42.661Z,21.37
2022-08-05T13:17:55.881Z,20.54
2022-08-05T13:23:02.390Z,20.37
2022-08-05T13:28:12.830Z,20.74
2022-08-05T13:34:23.558Z,20.92
2022-08-05T13:38:42.795Z,20.93
2022-08-05T13:43:54.955Z,20.86
2022-08-05T13:49:00.931Z,21.08
2022-08-05T13:54:11.594Z,21.36
2022-08-05T13:59:19.657Z,21.46
2022-08-05T14:04:41.218Z,21.72
2022-08-05T14:09:46.400Z,22.08
2022-08-05T14:14:51.376Z,22.42
2022-08-05T14:20:00.845Z,23.05
2022-08-05T14:25:21.505Z,23.67
2022-08-05T14:30:27.720Z,24.50
2022-08-05T14:35:37.063Z,24.55
2022-08-05T14:40:54.162Z,26.52
2022-08-05T14:45:58.344Z,26.71
2022-08-05T14:51:01.322Z,30.48
2022-08-05T14:56:06.544Z,30.29
2022-08-05T15:01:16.006Z,31.03
2022-08-05T15:06:19.807Z,34.47
2022-08-05T15:11:52.325Z,35.00
2022-08-05T15:16:55.394Z,33.64
2022-08-05T15:22:00.223Z,33.89
2022-08-05T15:27:03.882Z,38.14
2022-08-05T15:32:13.846Z,38.59
2022-08-05T15:38:21.128Z,36.51
2022-08-05T15:42:56.076Z,37.51
2022-08-05T15:48:03.391Z,35.90
2022-08-05T15:53:06.788Z,30.89
2022-08-05T15:58:16.695Z,36.52
2022-08-05T16:03:21.120Z,40.80
2022-08-05T16:13:51.244Z,35.81
2022-08-05T16:18:55.509Z,37.10
2022-08-05T16:24:03.294Z,37.69
2022-08-05T16:29:06.656Z,36.33
2022-08-05T16:34:12.590Z,30.51
2022-08-05T16:39:18.577Z,32.32
2022-08-05T16:44:25.695Z,29.81
2022-08-05T16:49:30.280Z,28.57
2022-08-05T16:54:33.315Z,27.37
2022-08-05T17:00:01.581Z,29.08
2022-08-05T17:05:00.422Z,28.24
2022-08-05T17:10:03.696Z,25.89
2022-08-05T17:15:07.593Z,26.48
2022-08-05T17:20:14.869Z,26.47
2022-08-05T17:25:33.487Z,25.50
2022-08-05T17:30:42.557Z,24.54
2022-08-05T17:36:07.552Z,24.40
2022-08-05T17:41:22.927Z,24.04
2022-08-05T17:46:35.130Z,23.39
2022-08-05T17:51:40.806Z,23.02
2022-08-05T17:56:44.714Z,22.91
2022-08-05T18:01:52.671Z,22.67
2022-08-05T18:07:01.262Z,22.51
2022-08-05T18:12:05.559Z,22.46
2022-08-05T18:18:00.987Z,22.40
2022-08-05T18:22:36.177Z,22.08
2022-08-05T18:27:52.081Z,21.80
2022-08-05T18:33:00.402Z,21.57
2022-08-05T18:38:05.552Z,21.39
2022-08-05T18:43:09.160Z,21.10
2022-08-05T18:48:30.773Z,20.94
2022-08-05T18:53:42.958Z,20.77
2022-08-05T18:58:50.835Z,20.64
2022-08-05T19:03:56.815Z,20.50
2022-08-05T19:09:01.447Z,20.35
2022-08-05T19:14:19.990Z,20.23
2022-08-05T19:19:27.710Z,20.06
2022-08-05T19:24:35.204Z,19.97
2022-08-05T19:29:39.670Z,19.82
2022-08-05T19:34:54.924Z,19.69
2022-08-05T19:40:00.861Z,19.51
2022-08-05T19:45:06.113Z,19.36
2022-08-05T19:50:11.952Z,19.25
2022-08-05T19:56:14.238Z,19.11
2022-08-05T20:00:39.483Z,18.95
2022-08-05T20:05:50.386Z,18.81
2022-08-05T20:10:56.732Z,18.70
2022-08-05T20:16:00.117Z,18.55
2022-08-05T20:21:04.791Z,18.46
2022-08-05T20:26:15.924Z,18.31
2022-08-05T20:31:21.547Z,18.16
2022-08-05T20:36:25.979Z,18.01
2022-08-05T20:41:43.138Z,17.85
2022-08-05T20:46:47.855Z,17.71
2022-08-05T20:51:53.387Z,17.57
2022-08-05T20:56:58.614Z,17.41
2022-08-05T21:02:01.489Z,17.24
2022-08-05T21:07:08.982Z,17.10
2022-08-05T21:12:13.178Z,16.96
2022-08-05T21:17:19.911Z,16.81
2022-08-05T21:22:25.386Z,16.72
2022-08-05T21:27:38.814Z,16.65
2022-08-05T21:32:42.037Z,16.46
2022-08-05T21:37:52.650Z,16.30
2022-08-05T21:42:59.024Z,16.25
2022-08-05T21:48:02.301Z,16.13
2022-08-05T21:53:16.780Z,16.10
2022-08-05T21:58:24.800Z,16.01
2022-08-05T22:03:48.462Z,15.93
2022-08-05T22:08:55.742Z,15.76
2022-08-05T22:14:32.517Z,15.52
2022-08-05T22:20:01.700Z,15.50
2022-08-05T22:25:04.312Z,15.49
2022-08-05T22:30:15.402Z,15.41
2022-08-05T22:35:20.032Z,15.30
2022-08-05T22:40:23.445Z,15.09
2022-08-05T22:45:27.748Z,15.03
2022-08-05T22:50:33.905Z,14.93
2022-08-05T22:55:57.053Z,14.83
2022-08-05T23:01:01.606Z,14.75
2022-08-05T23:06:04.617Z,14.62
2022-08-05T23:11:09.186Z,14.56
2022-08-05T23:16:13.606Z,14.44
2022-08-05T23:21:42.821Z,14.33
2022-08-05T23:26:51.002Z,14.24
2022-08-05T23:31:55.371Z,14.14
2022-08-05T23:36:59.436Z,14.12
2022-08-05T23:42:03.613Z,14.06
2022-08-05T23:47:15.133Z,14.04
2022-08-05T23:52:29.260Z,13.90
2022-08-05T23:57:34.398Z,13.87
